createdAt,value
2017-08-13T00:00:58.055Z,0
2017-08-13T00:02:08.580Z,0
2017-08-13T00:03:19.288Z,0
2017-08-13T00:04:29.796Z,0
2017-08-13T00:05:40.268Z,0
2017-08-13T00:06:50.748Z,0
2017-08-13T00:08:01.225Z,0
2017-08-13T00:09:11.913Z,0
2017-08-13T00:10:22.396Z,0
2017-08-13T00:11:32.907Z,0
2017-08-13T00:12:43.042Z,0
2017-08-13T00:13:53.534Z,0
2017-08-13T00:15:04.292Z,0
2017-08-13T00:16:14.481Z,0
2017-08-13T00:17:24.911Z,0
2017-08-13T00:18:34.921Z,0
2017-08-13T00:19:44.939Z,0
2017-08-13T00:20:55.657Z,0
2017-08-13T00:22:06.225Z,0
2017-08-13T00:23:16.734Z,0
2017-08-13T00:24:27.186Z,0
2017-08-13T00:25:37.648Z,0
2017-08-13T00:26:48.501Z,0
2017-08-13T00:27:58.953Z,0
2017-08-13T00:29:09.002Z,0
2017-08-13T00:30:19.530Z,0
2017-08-13T00:31:30.012Z,0
2017-08-13T00:32:40.785Z,0
2017-08-13T00:33:51.337Z,0
2017-08-13T00:35:01.879Z,0
2017-08-13T00:36:12.342Z,0
2017-08-13T00:37:22.805Z,0
2017-08-13T00:38:33.668Z,0
2017-08-13T00:39:44.279Z,0
2017-08-13T00:40:54.739Z,0
2017-08-13T00:42:05.268Z,0
2017-08-13T00:43:15.439Z,0
2017-08-13T00:44:26.261Z,0
2017-08-13T00:45:36.712Z,0
2017-08-13T00:46:46.860Z,0
2017-08-13T00:47:57.366Z,0
2017-08-13T00:49:07.828Z,0
2017-08-13T00:50:18.523Z,0
2017-08-13T00:51:29.013Z,0
2017-08-13T00:52:39.476Z,0
2017-08-13T00:53:49.958Z,0
2017-08-13T00:55:00.421Z,0
2017-08-13T00:56:11.133Z,0
2017-08-13T00:57:21.651Z,0
2017-08-13T00:58:32.116Z,0
2017-08-13T00:59:42.577Z,0
2017-08-13T01:00:53.056Z,0
2017-08-13T01:02:03.675Z,0
2017-08-13T01:03:14.237Z,0
2017-08-13T01:04:24.391Z,0
2017-08-13T01:05:34.729Z,0
2017-08-13T01:06:45.231Z,0
2017-08-13T01:07:56.009Z,0
2017-08-13T01:09:06.517Z,0
2017-08-13T01:10:16.678Z,0
2017-08-13T01:11:27.213Z,0
2017-08-13T01:12:37.658Z,0
2017-08-13T01:13:48.385Z,0
2017-08-13T01:14:58.549Z,0
2017-08-13T01:16:09.023Z,0
2017-08-13T01:17:19.490Z,0
2017-08-13T01:18:30.092Z,0
2017-08-13T01:19:40.843Z,0
2017-08-13T01:20:51.312Z,0
2017-08-13T01:22:01.758Z,0
2017-08-13T01:23:12.330Z,0
2017-08-13T01:24:22.787Z,0
2017-08-13T01:25:33.497Z,0
2017-08-13T01:26:43.977Z,0
2017-08-13T01:27:54.446Z,0
2017-08-13T01:29:04.577Z,0
2017-08-13T01:30:15.057Z,0
2017-08-13T01:31:25.777Z,0
2017-08-13T01:32:36.232Z,0
2017-08-13T01:33:46.722Z,0
2017-08-13T01:34:57.365Z,0
2017-08-13T01:36:07.864Z,0
2017-08-13T01:37:18.783Z,0
2017-08-13T01:38:28.884Z,0
2017-08-13T01:39:40.461Z,0
2017-08-13T01:40:50.480Z,0
2017-08-13T01:42:00.933Z,0
2017-08-13T01:43:11.647Z,0
2017-08-13T01:44:22.131Z,0
2017-08-13T01:45:32.577Z,0
2017-08-13T01:46:42.592Z,0
2017-08-13T01:47:53.057Z,0
2017-08-13T01:49:03.775Z,0
2017-08-13T01:50:14.225Z,0
2017-08-13T01:51:24.237Z,0
2017-08-13T01:52:35.763Z,0
2017-08-13T01:53:46.251Z,0
2017-08-13T01:54:56.632Z,0
2017-08-13T01:56:06.702Z,0
2017-08-13T01:57:17.191Z,0
2017-08-13T01:58:27.349Z,0
2017-08-13T01:59:37.967Z,0
2017-08-13T02:00:48.777Z,0
2017-08-13T02:01:58.929Z,0
2017-08-13T02:03:09.420Z,0
2017-08-13T02:04:19.896Z,0
2017-08-13T02:05:30.354Z,0
2017-08-13T02:06:41.050Z,0
2017-08-13T02:07:51.535Z,0
2017-08-13T02:09:01.682Z,0
2017-08-13T02:10:12.139Z,0
2017-08-13T02:11:22.684Z,0
2017-08-13T02:12:33.463Z,0
2017-08-13T02:13:43.945Z,0
2017-08-13T02:15:26.175Z,0
2017-08-13T02:16:36.648Z,0
2017-08-13T02:17:47.059Z,0
2017-08-13T02:18:57.506Z,0
2017-08-13T02:20:08.404Z,0
2017-08-13T02:21:18.573Z,0
2017-08-13T02:22:29.013Z,0
2017-08-13T02:23:39.960Z,0
2017-08-13T02:24:50.086Z,0
2017-08-13T02:26:00.245Z,0
2017-08-13T02:27:10.711Z,0
2017-08-13T02:28:21.140Z,0
2017-08-13T02:29:32.014Z,0
2017-08-13T02:30:42.483Z,0
2017-08-13T02:31:52.960Z,0
2017-08-13T02:33:04.382Z,0
2017-08-13T02:34:14.592Z,0
2017-08-13T02:35:25.314Z,0
2017-08-13T02:36:35.769Z,0
2017-08-13T02:37:46.046Z,0
2017-08-13T02:38:56.542Z,0
2017-08-13T02:40:06.713Z,0
2017-08-13T02:41:17.414Z,0
2017-08-13T02:42:27.899Z,0
2017-08-13T02:43:38.349Z,0
2017-08-13T02:44:48.882Z,0
2017-08-13T02:45:59.329Z,0
2017-08-13T02:47:10.048Z,0
2017-08-13T02:48:20.063Z,0
2017-08-13T02:49:30.223Z,0
2017-08-13T02:50:40.673Z,0
2017-08-13T02:51:51.132Z,0
2017-08-13T02:53:01.558Z,0
2017-08-13T02:54:12.045Z,0
2017-08-13T02:55:22.492Z,0
2017-08-13T02:56:32.969Z,0
2017-08-13T02:57:43.422Z,0
2017-08-13T02:58:53.897Z,0
2017-08-13T03:00:04.367Z,0
2017-08-13T03:01:14.857Z,0
2017-08-13T03:02:25.307Z,0
2017-08-13T03:03:35.796Z,0
2017-08-13T03:04:45.898Z,0
2017-08-13T03:05:56.343Z,0
2017-08-13T03:07:06.541Z,0
2017-08-13T03:08:17.003Z,0
2017-08-13T03:09:27.443Z,0
2017-08-13T03:10:38.147Z,0
2017-08-13T03:11:48.623Z,0
2017-08-13T03:12:59.215Z,0
2017-08-13T03:14:09.699Z,0
2017-08-13T03:15:20.006Z,0
2017-08-13T03:16:30.745Z,0
2017-08-13T03:17:41.223Z,0
2017-08-13T03:18:51.794Z,0
2017-08-13T03:20:02.240Z,0
2017-08-13T03:21:12.691Z,0
2017-08-13T03:22:23.438Z,0
2017-08-13T03:23:33.939Z,4
2017-08-13T03:24:43.760Z,0
2017-08-13T03:25:53.893Z,4
2017-08-13T03:27:04.370Z,4
2017-08-13T03:28:14.630Z,4
2017-08-13T03:29:25.140Z,4
2017-08-13T03:30:35.600Z,4
2017-08-13T03:31:45.761Z,4
2017-08-13T03:32:56.460Z,4
2017-08-13T03:34:07.144Z,4
2017-08-13T03:35:17.580Z,4
2017-08-13T03:36:28.047Z,4
2017-08-13T03:37:38.605Z,4
2017-08-13T03:38:49.071Z,8
2017-08-13T03:39:59.801Z,12
2017-08-13T03:41:10.289Z,16
2017-08-13T03:42:20.737Z,16
2017-08-13T03:43:31.226Z,24
2017-08-13T03:44:41.680Z,28
2017-08-13T03:45:52.440Z,36
2017-08-13T03:47:02.932Z,48
2017-08-13T03:48:13.399Z,56
2017-08-13T03:49:23.851Z,72
2017-08-13T03:50:33.563Z,80
2017-08-13T03:51:43.946Z,84
2017-08-13T03:52:54.406Z,84
2017-08-13T03:54:04.730Z,88
2017-08-13T03:55:15.202Z,100
2017-08-13T03:56:25.682Z,116
2017-08-13T03:57:36.389Z,140
2017-08-13T03:58:46.837Z,160
2017-08-13T03:59:57.347Z,188
2017-08-13T04:01:07.918Z,212
2017-08-13T04:02:18.072Z,240
2017-08-13T04:03:28.798Z,260
2017-08-13T04:04:39.480Z,276
2017-08-13T04:05:49.934Z,288
2017-08-13T04:07:00.409Z,320
2017-08-13T04:08:10.899Z,352
2017-08-13T04:09:21.824Z,396
2017-08-13T04:10:31.899Z,440
2017-08-13T04:11:42.397Z,484
2017-08-13T04:12:52.849Z,540
2017-08-13T04:14:03.339Z,588
2017-08-13T04:15:14.088Z,640
2017-08-13T04:16:24.534Z,676
2017-08-13T04:17:34.995Z,720
2017-08-13T04:18:45.484Z,708
2017-08-13T04:19:56.045Z,716
2017-08-13T04:21:06.766Z,748
2017-08-13T04:22:17.214Z,784
2017-08-13T04:23:27.729Z,840
2017-08-13T04:24:38.227Z,868
2017-08-13T04:25:48.689Z,868
2017-08-13T04:26:58.653Z,880
2017-08-13T04:28:09.127Z,936
2017-08-13T04:29:19.752Z,1012
2017-08-13T04:30:30.281Z,1068
2017-08-13T04:31:40.706Z,1124
2017-08-13T04:32:51.706Z,1144
2017-08-13T04:34:02.153Z,1172
2017-08-13T04:35:12.366Z,1200
2017-08-13T04:36:22.832Z,1216
2017-08-13T04:37:33.513Z,1248
2017-08-13T04:38:43.945Z,1280
2017-08-13T04:39:54.516Z,1308
2017-08-13T04:41:04.976Z,1324
2017-08-13T04:42:15.125Z,1384
2017-08-13T04:43:25.613Z,1440
2017-08-13T04:44:35.996Z,1540
2017-08-13T04:45:46.474Z,1692
2017-08-13T04:46:56.938Z,1916
2017-08-13T04:48:07.113Z,2056
2017-08-13T04:49:17.592Z,2184
2017-08-13T04:50:28.360Z,2304
2017-08-13T04:51:38.843Z,2308
2017-08-13T04:52:49.304Z,2212
2017-08-13T04:53:59.750Z,2136
2017-08-13T04:55:10.268Z,2052
2017-08-13T04:56:20.979Z,2016
2017-08-13T04:57:31.246Z,2036
2017-08-13T04:58:41.768Z,2068
2017-08-13T04:59:52.252Z,2184
2017-08-13T05:01:02.745Z,2392
2017-08-13T05:02:13.140Z,2568
2017-08-13T05:03:23.608Z,2960
2017-08-13T05:04:34.056Z,3240
2017-08-13T05:05:44.517Z,3392
2017-08-13T05:06:54.651Z,3368
2017-08-13T05:08:05.348Z,3148
2017-08-13T05:09:15.790Z,3068
2017-08-13T05:10:26.246Z,3376
2017-08-13T05:11:36.846Z,3492
2017-08-13T05:12:47.382Z,3476
2017-08-13T05:13:57.335Z,3420
2017-08-13T05:15:07.794Z,3324
2017-08-13T05:16:18.366Z,3272
2017-08-13T05:17:28.846Z,3420
2017-08-13T05:18:38.974Z,3368
2017-08-13T05:19:49.383Z,3408
2017-08-13T05:20:59.763Z,3496
2017-08-13T05:22:10.257Z,3288
2017-08-13T05:23:20.713Z,3088
2017-08-13T05:24:31.262Z,3184
2017-08-13T05:25:42.035Z,3412
2017-08-13T05:26:52.495Z,3432
2017-08-13T05:28:02.326Z,3408
2017-08-13T05:29:12.765Z,3340
2017-08-13T05:30:23.387Z,3496
2017-08-13T05:31:34.082Z,3616
2017-08-13T05:32:44.603Z,3588
2017-08-13T05:33:54.822Z,3608
2017-08-13T05:35:05.292Z,3740
2017-08-13T05:36:15.761Z,3924
2017-08-13T05:37:26.579Z,3968
2017-08-13T05:38:36.818Z,3844
2017-08-13T05:39:48.280Z,3740
2017-08-13T05:40:57.973Z,3600
2017-08-13T05:42:08.618Z,3552
2017-08-13T05:43:19.342Z,3672
2017-08-13T05:44:29.912Z,3748
2017-08-13T05:45:40.147Z,3728
2017-08-13T05:46:50.643Z,3736
2017-08-13T05:48:00.798Z,3760
2017-08-13T05:49:11.520Z,3804
2017-08-13T05:50:21.999Z,3828
2017-08-13T05:51:32.239Z,3832
2017-08-13T05:52:42.389Z,3836
2017-08-13T05:53:52.850Z,3888
2017-08-13T05:55:03.582Z,3940
2017-08-13T05:56:14.046Z,4004
2017-08-13T05:57:24.523Z,4084
2017-08-13T05:58:34.988Z,4144
2017-08-13T05:59:45.436Z,4144
2017-08-13T06:00:56.140Z,4148
2017-08-13T06:02:06.593Z,4168
2017-08-13T06:03:16.745Z,4240
2017-08-13T06:04:27.018Z,4284
2017-08-13T06:05:37.461Z,4236
2017-08-13T06:06:48.181Z,4164
2017-08-13T06:07:58.666Z,4152
2017-08-13T06:09:09.133Z,4168
2017-08-13T06:10:19.823Z,4180
2017-08-13T06:11:30.351Z,4180
2017-08-13T06:12:41.201Z,4160
2017-08-13T06:13:51.680Z,4124
2017-08-13T06:15:02.152Z,4112
2017-08-13T06:16:12.652Z,4092
2017-08-13T06:17:23.097Z,4064
2017-08-13T06:18:33.854Z,4060
2017-08-13T06:19:44.357Z,4044
2017-08-13T06:20:54.804Z,4076
2017-08-13T06:22:05.268Z,4076
2017-08-13T06:23:15.733Z,4096
2017-08-13T06:24:25.820Z,4108
2017-08-13T06:25:35.982Z,4112
2017-08-13T06:26:46.002Z,4124
2017-08-13T06:27:56.552Z,4124
2017-08-13T06:29:07.083Z,4160
2017-08-13T06:30:17.463Z,4208
2017-08-13T06:31:27.951Z,4220
2017-08-13T06:32:38.446Z,4216
2017-08-13T06:33:48.663Z,4236
2017-08-13T06:34:59.056Z,4224
2017-08-13T06:36:09.409Z,4220
2017-08-13T06:37:19.863Z,4212
2017-08-13T06:38:30.313Z,4200
2017-08-13T06:39:40.780Z,4200
2017-08-13T06:40:50.889Z,4192
2017-08-13T06:42:01.300Z,4196
2017-08-13T06:43:11.736Z,4208
2017-08-13T06:44:22.206Z,4292
2017-08-13T06:45:32.682Z,4940
2017-08-13T06:46:43.168Z,5800
2017-08-13T06:47:53.877Z,5332
2017-08-13T06:49:04.340Z,4644
2017-08-13T06:50:14.497Z,4424
2017-08-13T06:51:24.655Z,4688
2017-08-13T06:52:35.355Z,4628
2017-08-13T06:53:46.100Z,4972
2017-08-13T06:54:57.211Z,5032
2017-08-13T06:56:07.722Z,5740
2017-08-13T06:57:17.894Z,5424
2017-08-13T06:58:28.465Z,6400
2017-08-13T06:59:38.900Z,8116
2017-08-13T07:00:49.358Z,9540
2017-08-13T07:01:59.853Z,9888
2017-08-13T07:03:10.363Z,9696
2017-08-13T07:04:20.837Z,9584
2017-08-13T07:05:31.541Z,8976
2017-08-13T07:06:42.021Z,7300
2017-08-13T07:07:52.483Z,6508
2017-08-13T07:09:03.016Z,5396
2017-08-13T07:10:13.161Z,5332
2017-08-13T07:11:23.538Z,5320
2017-08-13T07:12:34.084Z,4976
2017-08-13T07:13:44.785Z,4928
2017-08-13T07:14:55.235Z,4924
2017-08-13T07:16:05.703Z,4980
2017-08-13T07:17:16.458Z,5088
2017-08-13T07:18:26.919Z,5328
2017-08-13T07:19:37.435Z,5948
2017-08-13T07:20:47.899Z,6820
2017-08-13T07:21:58.410Z,7504
2017-08-13T07:23:09.112Z,7784
2017-08-13T07:24:19.588Z,7120
2017-08-13T07:25:30.089Z,6508
2017-08-13T07:26:40.566Z,6076
2017-08-13T07:27:51.017Z,6016
2017-08-13T07:29:00.665Z,6100
2017-08-13T07:30:11.126Z,5888
2017-08-13T07:31:21.672Z,5932
2017-08-13T07:32:32.136Z,6068
2017-08-13T07:33:42.641Z,6100
2017-08-13T07:34:52.851Z,6272
2017-08-13T07:36:03.457Z,6856
2017-08-13T07:37:13.914Z,7120
2017-08-13T07:38:24.080Z,7148
2017-08-13T07:39:34.542Z,7280
2017-08-13T07:40:44.953Z,7108
2017-08-13T07:41:55.534Z,7340
2017-08-13T07:43:05.593Z,7652
2017-08-13T07:44:16.052Z,7996
2017-08-13T07:45:26.656Z,8584
2017-08-13T07:46:37.664Z,9440
2017-08-13T07:47:48.163Z,10256
2017-08-13T07:48:58.672Z,10404
2017-08-13T07:50:10.130Z,9832
2017-08-13T07:51:20.643Z,10164
2017-08-13T07:52:31.440Z,9420
2017-08-13T07:53:41.959Z,9624
2017-08-13T07:54:52.565Z,11952
2017-08-13T07:56:02.771Z,13456
2017-08-13T07:57:13.450Z,11012
2017-08-13T07:58:24.209Z,8528
2017-08-13T07:59:34.717Z,7120
2017-08-13T08:00:45.281Z,9160
2017-08-13T08:01:55.431Z,8536
2017-08-13T08:03:05.627Z,9396
2017-08-13T08:04:16.348Z,10144
2017-08-13T08:05:26.753Z,9304
2017-08-13T08:06:36.795Z,9916
2017-08-13T08:07:47.266Z,10072
2017-08-13T08:08:57.970Z,10416
2017-08-13T08:10:08.691Z,10952
2017-08-13T08:11:19.358Z,11472
2017-08-13T08:12:29.543Z,11424
2017-08-13T08:13:40.006Z,11528
2017-08-13T08:14:50.497Z,12484
2017-08-13T08:16:01.436Z,11640
2017-08-13T08:17:11.595Z,12752
2017-08-13T08:18:21.606Z,12324
2017-08-13T08:19:32.075Z,12948
2017-08-13T08:20:42.797Z,13596
2017-08-13T08:21:53.098Z,15936
2017-08-13T08:23:03.149Z,18432
2017-08-13T08:24:13.618Z,19616
2017-08-13T08:25:24.155Z,20640
2017-08-13T08:26:34.303Z,22080
2017-08-13T08:27:45.032Z,23424
2017-08-13T08:28:55.505Z,23232
2017-08-13T08:30:05.730Z,25600
2017-08-13T08:31:15.899Z,27008
2017-08-13T08:32:26.044Z,28384
2017-08-13T08:33:36.469Z,28192
2017-08-13T08:34:46.990Z,30528
2017-08-13T08:35:57.497Z,32448
2017-08-13T08:37:07.980Z,30496
2017-08-13T08:38:18.552Z,32768
2017-08-13T08:39:28.996Z,22944
2017-08-13T08:40:39.456Z,22144
2017-08-13T08:41:49.127Z,22368
2017-08-13T08:42:59.638Z,21152
2017-08-13T08:44:10.009Z,22272
2017-08-13T08:45:20.427Z,22656
2017-08-13T08:46:30.947Z,25408
2017-08-13T08:47:41.475Z,25600
2017-08-13T08:48:51.989Z,22848
2017-08-13T08:50:02.481Z,27232
2017-08-13T08:51:13.273Z,22720
2017-08-13T08:52:23.734Z,22592
2017-08-13T08:53:34.296Z,23456
2017-08-13T08:54:44.457Z,23584
2017-08-13T08:55:55.005Z,25920
2017-08-13T08:57:05.726Z,28416
2017-08-13T08:58:15.972Z,25184
2017-08-13T08:59:26.473Z,21984
2017-08-13T09:00:36.969Z,21408
2017-08-13T09:01:47.453Z,20576
2017-08-13T09:02:58.156Z,19904
2017-08-13T09:04:08.337Z,19264
2017-08-13T09:05:19.037Z,18880
2017-08-13T09:06:29.578Z,18176
2017-08-13T09:07:40.131Z,18720
2017-08-13T09:08:50.896Z,19744
2017-08-13T09:10:01.361Z,20896
2017-08-13T09:11:11.891Z,22400
2017-08-13T09:12:22.064Z,25312
2017-08-13T09:13:32.784Z,37376
2017-08-13T09:14:43.541Z,44640
2017-08-13T09:15:54.064Z,29440
2017-08-13T09:17:04.639Z,29888
2017-08-13T09:18:15.198Z,36352
2017-08-13T09:19:25.656Z,37472
2017-08-13T09:20:36.453Z,39584
2017-08-13T09:21:46.979Z,40032
2017-08-13T09:22:57.490Z,68704
2017-08-13T09:24:07.966Z,78240
2017-08-13T09:25:18.171Z,39776
2017-08-13T09:26:28.609Z,29728
2017-08-13T09:27:39.103Z,32320
2017-08-13T09:28:49.292Z,40384
2017-08-13T09:29:59.789Z,59776
2017-08-13T09:31:10.264Z,38912
2017-08-13T09:32:20.589Z,34848
2017-08-13T09:33:31.076Z,39136
2017-08-13T09:34:41.565Z,50304
2017-08-13T09:35:52.048Z,35424
2017-08-13T09:37:02.632Z,52320
2017-08-13T09:38:13.360Z,36736
2017-08-13T09:39:23.538Z,27072
2017-08-13T09:40:34.065Z,23264
2017-08-13T09:41:44.600Z,20864
2017-08-13T09:42:55.149Z,14676
2017-08-13T09:44:05.892Z,16224
2017-08-13T09:45:16.367Z,18304
2017-08-13T09:46:26.884Z,18816
2017-08-13T09:47:37.221Z,21152
2017-08-13T09:48:47.300Z,23328
2017-08-13T09:49:58.042Z,87488
2017-08-13T09:51:08.506Z,96512
2017-08-13T09:52:18.559Z,89952
2017-08-13T09:53:29.266Z,31104
2017-08-13T09:54:39.668Z,33056
2017-08-13T09:55:50.395Z,40448
2017-08-13T09:57:00.697Z,30432
2017-08-13T09:58:11.193Z,26176
2017-08-13T09:59:21.350Z,25600
2017-08-13T10:00:31.848Z,24832
2017-08-13T10:01:43.613Z,24448
2017-08-13T10:02:54.737Z,24704
2017-08-13T10:04:05.248Z,24160
2017-08-13T10:05:15.758Z,24256
2017-08-13T10:06:26.220Z,22848
2017-08-13T10:07:37.226Z,25152
2017-08-13T10:08:47.707Z,56800
2017-08-13T10:09:59.196Z,30464
2017-08-13T10:11:09.845Z,74112
2017-08-13T10:12:20.369Z,35392
2017-08-13T10:13:31.188Z,72256
2017-08-13T10:14:41.226Z,83552
2017-08-13T10:15:51.699Z,30144
2017-08-13T10:17:02.191Z,32352
2017-08-13T10:18:12.870Z,48128
2017-08-13T10:19:23.733Z,27776
2017-08-13T10:20:34.829Z,24352
2017-08-13T10:21:45.438Z,21408
2017-08-13T10:22:55.944Z,19072
2017-08-13T10:24:06.237Z,18560
2017-08-13T10:25:16.991Z,19872
2017-08-13T10:26:27.804Z,19712
2017-08-13T10:27:38.511Z,18624
2017-08-13T10:28:48.993Z,20480
2017-08-13T10:29:59.496Z,21312
2017-08-13T10:31:10.031Z,24192
2017-08-13T10:32:20.540Z,24864
2017-08-13T10:33:31.060Z,34208
2017-08-13T10:34:41.586Z,32384
2017-08-13T10:35:52.316Z,25856
2017-08-13T10:37:03.110Z,25728
2017-08-13T10:38:13.765Z,24864
2017-08-13T10:39:24.289Z,21408
2017-08-13T10:40:34.550Z,19008
2017-08-13T10:41:45.112Z,17184
2017-08-13T10:42:55.841Z,16512
2017-08-13T10:44:06.452Z,16000
2017-08-13T10:45:17.045Z,14392
2017-08-13T10:46:27.265Z,13240
2017-08-13T10:47:37.800Z,11552
2017-08-13T10:48:47.898Z,10624
2017-08-13T10:49:58.586Z,11632
2017-08-13T10:51:09.146Z,12880
2017-08-13T10:52:19.400Z,13720
2017-08-13T10:53:29.953Z,14244
2017-08-13T10:54:40.784Z,15656
2017-08-13T10:55:51.377Z,20352
2017-08-13T10:57:01.926Z,118752
2017-08-13T10:58:12.478Z,104448
2017-08-13T10:59:23.080Z,109728
2017-08-13T11:00:33.885Z,129920
2017-08-13T11:01:44.457Z,141440
2017-08-13T11:02:55.184Z,49088
2017-08-13T11:04:05.739Z,33984
2017-08-13T11:05:16.343Z,40896
2017-08-13T11:06:27.154Z,75328
2017-08-13T11:07:37.637Z,115968
2017-08-13T11:08:48.288Z,28416
2017-08-13T11:09:58.790Z,27168
2017-08-13T11:11:09.463Z,25280
2017-08-13T11:12:20.283Z,25888
2017-08-13T11:13:31.025Z,54144
2017-08-13T11:14:41.930Z,24672
2017-08-13T11:15:52.458Z,28672
2017-08-13T11:17:03.027Z,19104
2017-08-13T11:18:13.977Z,16192
2017-08-13T11:19:24.523Z,16160
2017-08-13T11:20:35.064Z,16736
2017-08-13T11:21:46.571Z,15680
2017-08-13T11:22:57.332Z,12868
2017-08-13T11:24:08.090Z,10300
2017-08-13T11:25:18.726Z,8556
2017-08-13T11:26:30.253Z,7672
2017-08-13T11:27:41.011Z,7204
2017-08-13T11:28:51.577Z,7140
2017-08-13T11:30:02.369Z,7780
2017-08-13T11:31:13.176Z,8936
2017-08-13T11:32:23.776Z,9580
2017-08-13T11:33:34.543Z,9520
2017-08-13T11:34:45.150Z,9140
2017-08-13T11:35:56.115Z,9360
2017-08-13T11:37:06.727Z,9876
2017-08-13T11:38:17.009Z,10376
2017-08-13T11:39:27.706Z,10052
2017-08-13T11:40:38.211Z,9928
2017-08-13T11:41:49.165Z,10356
2017-08-13T11:42:59.389Z,10688
2017-08-13T11:44:09.905Z,9896
2017-08-13T11:45:20.393Z,11052
2017-08-13T11:46:30.946Z,12900
2017-08-13T11:47:42.819Z,13728
2017-08-13T11:48:53.457Z,14012
2017-08-13T11:50:03.953Z,12928
2017-08-13T11:51:14.456Z,20160
2017-08-13T11:52:24.733Z,126464
2017-08-13T11:53:35.446Z,97440
2017-08-13T11:54:45.963Z,99072
2017-08-13T11:55:56.401Z,128448
2017-08-13T11:57:06.895Z,127072
2017-08-13T11:58:17.420Z,99904
2017-08-13T11:59:27.743Z,92800
2017-08-13T12:00:38.779Z,118688
2017-08-13T12:01:49.332Z,135168
2017-08-13T12:02:59.915Z,61824
2017-08-13T12:04:10.446Z,24192
2017-08-13T12:05:20.911Z,56736
2017-08-13T12:06:31.481Z,33344
2017-08-13T12:07:41.948Z,119328
2017-08-13T12:08:52.443Z,134848
2017-08-13T12:10:02.963Z,137472
2017-08-13T12:11:13.746Z,120096
2017-08-13T12:12:24.017Z,114784
2017-08-13T12:13:34.638Z,104704
2017-08-13T12:14:44.474Z,83456
2017-08-13T12:15:55.074Z,83968
2017-08-13T12:17:06.071Z,115072
2017-08-13T12:18:16.673Z,129024
2017-08-13T12:19:27.178Z,111296
2017-08-13T12:20:37.788Z,102464
2017-08-13T12:21:48.319Z,104736
2017-08-13T12:22:59.130Z,104864
2017-08-13T12:24:09.769Z,99264
2017-08-13T12:25:20.256Z,95936
2017-08-13T12:26:30.857Z,95200
2017-08-13T12:27:41.392Z,108896
2017-08-13T12:28:52.320Z,126432
2017-08-13T12:30:02.880Z,136128
2017-08-13T12:31:13.439Z,120672
2017-08-13T12:32:24.200Z,89056
2017-08-13T12:33:35.002Z,100928
2017-08-13T12:34:45.783Z,135424
2017-08-13T12:35:56.297Z,29440
2017-08-13T12:37:06.885Z,28544
2017-08-13T12:38:17.409Z,20320
2017-08-13T12:39:27.930Z,18848
2017-08-13T12:40:38.989Z,15028
2017-08-13T12:41:49.588Z,12760
2017-08-13T12:43:00.179Z,11916
2017-08-13T12:44:10.668Z,10828
2017-08-13T12:45:21.342Z,9984
2017-08-13T12:46:32.215Z,8932
2017-08-13T12:47:42.727Z,8212
2017-08-13T12:48:53.424Z,8096
2017-08-13T12:50:03.943Z,8092
2017-08-13T12:51:14.439Z,7820
2017-08-13T12:52:26.239Z,7700
2017-08-13T12:53:37.037Z,7836
2017-08-13T12:54:47.554Z,8400
2017-08-13T12:55:58.054Z,9032
2017-08-13T12:57:08.540Z,9364
2017-08-13T12:58:19.433Z,9148
2017-08-13T12:59:29.935Z,9316
2017-08-13T13:00:40.446Z,9896
2017-08-13T13:01:50.665Z,12072
2017-08-13T13:03:01.253Z,14976
2017-08-13T13:04:12.047Z,17056
2017-08-13T13:05:22.236Z,19488
2017-08-13T13:06:32.710Z,19456
2017-08-13T13:07:43.278Z,19776
2017-08-13T13:08:53.816Z,18208
2017-08-13T13:10:04.670Z,16064
2017-08-13T13:11:15.174Z,13676
2017-08-13T13:12:25.216Z,13012
2017-08-13T13:13:35.700Z,13000
2017-08-13T13:14:46.192Z,13156
2017-08-13T13:15:58.045Z,13264
2017-08-13T13:17:08.531Z,12848
2017-08-13T13:18:19.278Z,12508
2017-08-13T13:19:29.337Z,24128
2017-08-13T13:20:39.915Z,102432
2017-08-13T13:21:50.683Z,42336
2017-08-13T13:23:01.196Z,26528
2017-08-13T13:24:11.428Z,38144
2017-08-13T13:25:21.912Z,27648
2017-08-13T13:26:32.394Z,18592
2017-08-13T13:27:42.951Z,18048
2017-08-13T13:28:53.459Z,16640
2017-08-13T13:30:03.691Z,15128
2017-08-13T13:31:14.229Z,14064
2017-08-13T13:32:24.832Z,12984
2017-08-13T13:33:35.626Z,12356
2017-08-13T13:34:46.106Z,11436
2017-08-13T13:35:56.781Z,10344
2017-08-13T13:37:07.336Z,9316
2017-08-13T13:38:17.827Z,9160
2017-08-13T13:39:28.588Z,9976
2017-08-13T13:40:39.092Z,11036
2017-08-13T13:41:50.609Z,12420
2017-08-13T13:43:01.101Z,13308
2017-08-13T13:44:11.603Z,14024
2017-08-13T13:45:22.389Z,13496
2017-08-13T13:46:32.910Z,12652
2017-08-13T13:47:43.500Z,11740
2017-08-13T13:48:54.029Z,10980
2017-08-13T13:50:04.537Z,10664
2017-08-13T13:51:15.476Z,10524
2017-08-13T13:52:25.972Z,10196
2017-08-13T13:53:36.466Z,10368
2017-08-13T13:54:47.034Z,10940
2017-08-13T13:55:57.517Z,12720
2017-08-13T13:57:07.796Z,14268
2017-08-13T13:58:18.277Z,16064
2017-08-13T13:59:29.022Z,16768
2017-08-13T14:00:39.685Z,13720
2017-08-13T14:01:50.189Z,13072
2017-08-13T14:03:00.906Z,71296
2017-08-13T14:04:11.391Z,68384
2017-08-13T14:05:21.972Z,73152
2017-08-13T14:06:32.452Z,69984
2017-08-13T14:07:42.908Z,65152
2017-08-13T14:08:53.703Z,72384
2017-08-13T14:10:04.204Z,73728
2017-08-13T14:11:14.746Z,69856
2017-08-13T14:12:25.334Z,81408
2017-08-13T14:13:35.892Z,89184
2017-08-13T14:14:46.671Z,81600
2017-08-13T14:15:56.880Z,79232
2017-08-13T14:17:07.592Z,89152
2017-08-13T14:18:18.140Z,88384
2017-08-13T14:19:28.693Z,64608
2017-08-13T14:20:40.574Z,46688
2017-08-13T14:21:51.126Z,60608
2017-08-13T14:23:01.739Z,86208
2017-08-13T14:24:12.312Z,89152
2017-08-13T14:25:22.841Z,63584
2017-08-13T14:26:33.289Z,46784
2017-08-13T14:27:43.455Z,12832
2017-08-13T14:28:54.360Z,11344
2017-08-13T14:30:05.002Z,9608
2017-08-13T14:31:15.795Z,8792
2017-08-13T14:32:26.116Z,7548
2017-08-13T14:33:36.188Z,7168
2017-08-13T14:34:46.790Z,7040
2017-08-13T14:35:56.915Z,6852
2017-08-13T14:37:08.974Z,6188
2017-08-13T14:38:19.760Z,5664
2017-08-13T14:39:29.971Z,5016
2017-08-13T14:40:40.559Z,4472
2017-08-13T14:41:51.087Z,3932
2017-08-13T14:43:01.589Z,3548
2017-08-13T14:44:12.367Z,3244
2017-08-13T14:45:22.976Z,3020
2017-08-13T14:46:33.479Z,2832
2017-08-13T14:47:43.971Z,2680
2017-08-13T14:48:54.477Z,2692
2017-08-13T14:50:05.222Z,2916
2017-08-13T14:51:15.397Z,3368
2017-08-13T14:52:25.924Z,3720
2017-08-13T14:53:36.428Z,3872
2017-08-13T14:54:46.989Z,3828
2017-08-13T14:55:57.417Z,3736
2017-08-13T14:57:07.928Z,3668
2017-08-13T14:58:18.196Z,3592
2017-08-13T14:59:29.379Z,3528
2017-08-13T15:00:39.588Z,3524
2017-08-13T15:01:50.354Z,3564
2017-08-13T15:03:00.919Z,3500
2017-08-13T15:04:11.236Z,3400
2017-08-13T15:05:21.827Z,3332
2017-08-13T15:06:32.349Z,3348
2017-08-13T15:07:42.840Z,3596
2017-08-13T15:08:53.046Z,3836
2017-08-13T15:10:03.258Z,4008
2017-08-13T15:11:13.791Z,4196
2017-08-13T15:12:23.994Z,4324
2017-08-13T15:13:34.826Z,4412
2017-08-13T15:14:45.351Z,4572
2017-08-13T15:15:56.053Z,4768
2017-08-13T15:17:06.521Z,5048
2017-08-13T15:18:17.037Z,5372
2017-08-13T15:19:27.519Z,5712
2017-08-13T15:20:38.041Z,6084
2017-08-13T15:21:48.636Z,6628
2017-08-13T15:22:58.708Z,7376
2017-08-13T15:24:09.246Z,8412
2017-08-13T15:25:19.717Z,8584
2017-08-13T15:26:30.293Z,8856
2017-08-13T15:27:40.819Z,9524
2017-08-13T15:28:51.330Z,10384
2017-08-13T15:30:01.865Z,11164
2017-08-13T15:31:12.615Z,11476
2017-08-13T15:32:23.406Z,11500
2017-08-13T15:33:33.996Z,11352
2017-08-13T15:34:44.279Z,11140
2017-08-13T15:35:54.433Z,10796
2017-08-13T15:37:05.276Z,10376
2017-08-13T15:38:15.822Z,9940
2017-08-13T15:39:26.053Z,9504
2017-08-13T15:40:35.834Z,9076
2017-08-13T15:41:46.385Z,8608
2017-08-13T15:42:57.122Z,8140
2017-08-13T15:44:07.720Z,7568
2017-08-13T15:45:18.316Z,6984
2017-08-13T15:46:29.041Z,6456
2017-08-13T15:47:39.647Z,5976
2017-08-13T15:48:50.102Z,5608
2017-08-13T15:50:00.665Z,5304